createdAt,value
2018-10-11T00:00:16.703Z,13.80
2018-10-11T00:02:44.257Z,13.60
2018-10-11T00:05:12.139Z,13.52
2018-10-11T00:07:39.683Z,13.59
2018-10-11T00:10:07.238Z,13.47
2018-10-11T00:12:34.874Z,13.36
2018-10-11T00:15:02.442Z,13.30
2018-10-11T00:17:30.850Z,13.27
2018-10-11T00:19:58.493Z,13.16
2018-10-11T00:22:25.969Z,13.03
2018-10-11T00:24:53.534Z,12.88
2018-10-11T00:27:21.050Z,12.71
2018-10-11T00:29:48.872Z,12.57
2018-10-11T00:32:16.397Z,12.53
2018-10-11T00:34:43.935Z,12.50
2018-10-11T00:37:11.471Z,12.69
2018-10-11T00:39:39.014Z,12.52
2018-10-11T00:42:06.586Z,12.45
2018-10-11T00:44:34.107Z,12.49
2018-10-11T00:47:01.941Z,12.45
2018-10-11T00:49:29.523Z,12.44
2018-10-11T00:51:57.071Z,12.41
2018-10-11T00:54:24.619Z,12.67
2018-10-11T00:56:52.156Z,12.83
2018-10-11T00:59:19.703Z,12.71
2018-10-11T01:01:47.263Z,12.88
2018-10-11T01:04:15.007Z,13.08
2018-10-11T01:06:42.522Z,13.20
2018-10-11T01:09:11.146Z,13.22
2018-10-11T01:11:38.995Z,12.96
2018-10-11T01:14:06.591Z,13.15
2018-10-11T01:16:34.166Z,13.20
2018-10-11T01:19:01.708Z,13.07
2018-10-11T01:21:29.385Z,12.95
2018-10-11T01:23:56.997Z,12.75
2018-10-11T01:26:24.441Z,12.54
2018-10-11T01:28:52.341Z,12.76
2018-10-11T01:31:21.003Z,12.62
2018-10-11T01:33:48.658Z,12.56
2018-10-11T01:36:16.966Z,12.43
2018-10-11T01:38:45.063Z,12.23
2018-10-11T01:41:12.869Z,12.13
2018-10-11T01:43:40.690Z,12.00
2018-10-11T01:46:08.294Z,11.93
2018-10-11T01:48:35.833Z,11.88
2018-10-11T01:51:03.429Z,11.74
2018-10-11T01:53:30.974Z,11.62
2018-10-11T01:55:58.535Z,11.61
2018-10-11T01:58:26.074Z,11.48
2018-10-11T02:00:53.625Z,11.42
2018-10-11T02:03:21.442Z,11.61
2018-10-11T02:05:48.966Z,11.56
2018-10-11T02:08:16.491Z,11.56
2018-10-11T02:10:44.037Z,11.56
2018-10-11T02:13:11.569Z,11.49
2018-10-11T02:15:39.378Z,11.41
2018-10-11T02:18:06.914Z,11.34
2018-10-11T02:20:34.437Z,11.32
2018-10-11T02:23:03.158Z,11.62
2018-10-11T02:25:30.691Z,11.75
2018-10-11T02:27:58.228Z,11.79
2018-10-11T02:30:25.768Z,11.75
2018-10-11T02:32:53.346Z,11.84
2018-10-11T02:35:20.901Z,11.86
2018-10-11T02:37:48.472Z,11.83
2018-10-11T02:40:16.033Z,11.64
2018-10-11T02:42:43.573Z,11.72
2018-10-11T02:45:11.119Z,11.54
2018-10-11T02:47:38.709Z,11.43
2018-10-11T02:50:06.280Z,11.35
2018-10-11T02:52:33.808Z,11.33
2018-10-11T02:55:01.386Z,11.24
2018-10-11T02:57:34.514Z,11.23
2018-10-11T03:00:02.283Z,11.10
2018-10-11T03:02:29.866Z,11.02
2018-10-11T03:04:57.471Z,10.93
2018-10-11T03:07:25.943Z,10.83
2018-10-11T03:09:53.543Z,10.78
2018-10-11T03:12:21.087Z,10.82
2018-10-11T03:14:48.630Z,10.73
2018-10-11T03:17:16.207Z,10.72
2018-10-11T03:19:43.748Z,10.67
2018-10-11T03:22:11.949Z,10.56
2018-10-11T03:24:39.531Z,10.47
2018-10-11T03:27:07.119Z,10.46
2018-10-11T03:29:34.644Z,10.49
2018-10-11T03:32:02.182Z,10.53
2018-10-11T03:34:30.162Z,10.77
2018-10-11T03:36:58.527Z,10.81
2018-10-11T03:39:26.719Z,10.88
2018-10-11T03:41:55.069Z,10.80
2018-10-11T03:44:22.604Z,10.70
2018-10-11T03:46:50.228Z,10.68
2018-10-11T03:49:17.803Z,10.61
2018-10-11T03:51:45.361Z,10.74
2018-10-11T03:54:12.891Z,10.64
2018-10-11T03:56:40.442Z,10.54
2018-10-11T03:59:08.101Z,10.47
2018-10-11T04:01:35.655Z,10.38
2018-10-11T04:04:03.410Z,10.22
2018-10-11T04:06:30.970Z,10.24
2018-10-11T04:08:58.501Z,10.11
2018-10-11T04:11:26.393Z,9.97
2018-10-11T04:13:54.358Z,9.93
2018-10-11T04:16:21.907Z,9.89
2018-10-11T04:18:49.454Z,9.91
2018-10-11T04:21:17.014Z,10.03
2018-10-11T04:26:18.974Z,10.36
2018-10-11T04:28:46.510Z,10.19
2018-10-11T04:31:14.029Z,10.19
2018-10-11T04:33:41.903Z,10.08
2018-10-11T04:36:09.494Z,9.96
2018-10-11T04:38:36.975Z,9.95
2018-10-11T04:41:04.643Z,9.91
2018-10-11T04:43:32.158Z,9.84
2018-10-11T04:45:59.706Z,9.85
2018-10-11T04:48:27.233Z,9.86
2018-10-11T04:50:55.043Z,9.82
2018-10-11T04:53:22.570Z,9.77
2018-10-11T04:55:50.083Z,9.74
2018-10-11T04:58:17.625Z,9.71
2018-10-11T05:00:45.160Z,9.71
2018-10-11T05:03:13.019Z,9.67
2018-10-11T05:05:41.502Z,9.62
2018-10-11T05:08:09.252Z,9.86
2018-10-11T05:10:36.801Z,9.77
2018-10-11T05:13:04.366Z,9.78
2018-10-11T05:15:32.685Z,9.78
2018-10-11T05:18:00.542Z,9.73
2018-10-11T05:20:28.067Z,9.70
2018-10-11T05:22:55.826Z,9.74
2018-10-11T05:25:23.470Z,9.72
2018-10-11T05:27:51.274Z,9.73
2018-10-11T05:30:18.822Z,9.73
2018-10-11T05:32:46.402Z,9.80
2018-10-11T05:35:13.962Z,9.72
2018-10-11T05:37:41.526Z,9.70
2018-10-11T05:40:09.127Z,9.77
2018-10-11T05:42:36.749Z,9.76
2018-10-11T05:45:07.060Z,9.73
2018-10-11T05:47:34.681Z,9.64
2018-10-11T05:50:02.249Z,9.71
2018-10-11T05:52:30.070Z,9.68
2018-10-11T05:54:57.690Z,9.69
2018-10-11T05:57:25.572Z,9.73
2018-10-11T05:59:53.189Z,9.67
2018-10-11T06:02:20.803Z,9.67
2018-10-11T06:04:48.409Z,9.70
2018-10-11T06:07:16.042Z,9.77
2018-10-11T06:09:43.638Z,9.79
2018-10-11T06:12:11.633Z,9.83
2018-10-11T06:14:39.274Z,9.89
2018-10-11T06:17:06.830Z,10.07
2018-10-11T06:19:34.421Z,10.51
2018-10-11T06:22:01.963Z,11.07
2018-10-11T06:24:29.606Z,11.48
2018-10-11T06:26:57.180Z,11.88
2018-10-11T06:29:24.818Z,12.05
2018-10-11T06:31:52.610Z,12.44
2018-10-11T06:34:20.283Z,12.90
2018-10-11T06:36:47.897Z,13.32
2018-10-11T06:39:16.542Z,13.98
2018-10-11T06:41:44.185Z,14.35
2018-10-11T06:44:11.782Z,14.61
2018-10-11T06:46:39.674Z,14.79
2018-10-11T06:49:07.311Z,14.84
2018-10-11T06:51:34.922Z,14.72
2018-10-11T06:54:02.482Z,14.84
2018-10-11T06:56:30.015Z,15.47
2018-10-11T06:58:57.659Z,15.99
2018-10-11T07:01:25.230Z,16.43
2018-10-11T07:03:53.149Z,16.61
2018-10-11T07:06:20.714Z,16.05
2018-10-11T07:08:48.244Z,16.11
2018-10-11T07:11:16.120Z,16.05
2018-10-11T07:13:44.133Z,16.04
2018-10-11T07:16:11.678Z,16.11
2018-10-11T07:18:39.211Z,16.13
2018-10-11T07:21:06.799Z,16.26
2018-10-11T07:23:34.382Z,16.08
2018-10-11T07:26:02.026Z,16.69
2018-10-11T07:28:29.510Z,17.68
2018-10-11T07:30:57.417Z,18.96
2018-10-11T07:33:25.002Z,20.66
2018-10-11T07:35:52.556Z,21.57
2018-10-11T07:38:20.159Z,22.40
2018-10-11T07:40:47.782Z,22.94
2018-10-11T07:43:15.603Z,24.32
2018-10-11T07:45:43.165Z,24.78
2018-10-11T07:48:10.784Z,25.01
2018-10-11T07:50:38.323Z,25.58
2018-10-11T07:53:05.878Z,25.69
2018-10-11T07:55:33.452Z,26.65
2018-10-11T07:58:01.048Z,26.69
2018-10-11T08:00:28.575Z,27.42
2018-10-11T08:02:57.242Z,28.53
2018-10-11T08:05:24.784Z,28.35
2018-10-11T08:07:52.420Z,29.75
2018-10-11T08:10:19.986Z,30.42
2018-10-11T08:12:47.879Z,31.34
2018-10-11T08:15:15.409Z,32.10
2018-10-11T08:17:43.123Z,32.19
2018-10-11T08:20:10.634Z,32.96
2018-10-11T08:22:38.122Z,33.20
2018-10-11T08:25:05.885Z,33.34
2018-10-11T08:27:33.338Z,33.39
2018-10-11T08:30:00.863Z,34.04
2018-10-11T08:32:28.495Z,34.60
2018-10-11T08:34:55.949Z,34.93
2018-10-11T08:37:23.490Z,35.19
2018-10-11T08:39:51.048Z,35.53
2018-10-11T08:42:18.585Z,34.86
2018-10-11T08:44:46.458Z,35.18
2018-10-11T08:47:14.014Z,35.38
2018-10-11T08:49:41.567Z,35.32
2018-10-11T08:52:09.126Z,35.53
2018-10-11T08:54:42.302Z,36.23
2018-10-11T08:57:09.963Z,36.03
2018-10-11T08:59:37.542Z,36.23
2018-10-11T09:02:05.095Z,36.39
2018-10-11T09:04:32.646Z,37.23
2018-10-11T09:07:00.222Z,37.72
2018-10-11T09:09:27.800Z,38.10
2018-10-11T09:11:55.326Z,38.51
2018-10-11T09:14:22.878Z,38.75
2018-10-11T09:16:50.470Z,38.30
2018-10-11T09:19:17.998Z,39.44
2018-10-11T09:21:46.110Z,39.99
2018-10-11T09:24:13.635Z,40.86
2018-10-11T09:26:41.193Z,40.37
2018-10-11T09:29:15.426Z,38.50
2018-10-11T09:31:42.990Z,39.09
2018-10-11T09:34:10.542Z,38.98
2018-10-11T09:36:38.253Z,39.02
2018-10-11T09:39:06.619Z,39.00
2018-10-11T09:41:34.187Z,37.37
2018-10-11T09:44:01.755Z,36.68
2018-10-11T09:46:29.302Z,36.02
2018-10-11T09:48:57.037Z,35.40
2018-10-11T09:51:24.394Z,35.85
2018-10-11T09:53:52.078Z,35.39
2018-10-11T09:56:19.607Z,35.06
2018-10-11T09:58:47.134Z,35.49
2018-10-11T10:01:20.336Z,35.64
2018-10-11T10:03:47.912Z,35.29
2018-10-11T10:06:15.508Z,35.40
2018-10-11T10:08:43.047Z,35.14
2018-10-11T10:11:10.630Z,35.40
2018-10-11T10:13:38.165Z,34.91
2018-10-11T10:16:05.740Z,34.03
2018-10-11T10:18:33.295Z,34.74
2018-10-11T10:21:00.868Z,34.93
2018-10-11T10:23:28.447Z,34.16
2018-10-11T10:25:55.974Z,34.29
2018-10-11T10:28:23.523Z,33.87
2018-10-11T10:30:52.262Z,34.10
2018-10-11T10:33:20.543Z,35.30
2018-10-11T10:35:49.372Z,35.40
2018-10-11T10:38:16.957Z,35.39
2018-10-11T10:40:44.514Z,35.83
2018-10-11T10:43:12.073Z,36.04
2018-10-11T10:45:39.644Z,34.59
2018-10-11T10:48:07.451Z,34.42
2018-10-11T10:50:35.006Z,33.55
2018-10-11T10:53:02.871Z,32.59
2018-10-11T10:55:30.414Z,30.90
2018-10-11T10:57:57.943Z,30.12
2018-10-11T11:00:25.531Z,29.77
2018-10-11T11:02:53.346Z,29.32
2018-10-11T11:05:20.869Z,29.00
2018-10-11T11:07:48.392Z,28.55
2018-10-11T11:10:15.994Z,28.07
2018-10-11T11:12:43.555Z,27.70
2018-10-11T11:15:11.415Z,28.00
2018-10-11T11:17:39.246Z,27.51
2018-10-11T11:20:06.822Z,27.44
2018-10-11T11:22:34.382Z,27.47
2018-10-11T11:25:01.944Z,27.48
2018-10-11T11:27:29.669Z,27.29
2018-10-11T11:29:57.210Z,27.32
2018-10-11T11:32:24.775Z,27.05
2018-10-11T11:34:52.323Z,26.94
2018-10-11T11:37:19.853Z,27.10
2018-10-11T11:39:47.417Z,26.99
2018-10-11T11:42:15.015Z,26.98
2018-10-11T11:44:42.550Z,26.27
2018-10-11T11:47:10.110Z,26.55
2018-10-11T11:49:37.650Z,26.34
2018-10-11T11:52:05.300Z,26.56
2018-10-11T11:54:32.823Z,26.38
2018-10-11T11:57:00.395Z,26.21
2018-10-11T11:59:27.929Z,26.22
2018-10-11T12:01:55.535Z,26.04
2018-10-11T12:04:23.078Z,25.85
2018-10-11T12:06:50.665Z,25.70
2018-10-11T12:09:18.224Z,25.65
2018-10-11T12:11:45.795Z,25.48
2018-10-11T12:14:13.356Z,25.28
2018-10-11T12:16:40.970Z,24.93
2018-10-11T12:19:09.887Z,25.11
2018-10-11T12:21:37.474Z,24.92
2018-10-11T12:24:05.059Z,24.95
2018-10-11T12:26:32.631Z,24.95
2018-10-11T12:29:00.341Z,24.70
2018-10-11T12:31:27.778Z,24.72
2018-10-11T12:33:55.303Z,24.65
2018-10-11T12:36:22.871Z,24.75
2018-10-11T12:38:50.481Z,24.70
2018-10-11T12:41:18.055Z,24.34
2018-10-11T12:43:46.549Z,24.13
2018-10-11T12:46:13.186Z,24.17
2018-10-11T12:48:40.750Z,24.03
2018-10-11T12:51:08.294Z,23.97
2018-10-11T12:53:35.981Z,23.97
2018-10-11T12:56:03.522Z,24.05
2018-10-11T12:58:31.096Z,23.99
2018-10-11T13:00:58.696Z,24.01
2018-10-11T13:03:26.296Z,24.04
2018-10-11T13:05:53.866Z,24.06
2018-10-11T13:08:21.413Z,23.86
2018-10-11T13:10:48.965Z,23.75
2018-10-11T13:13:16.534Z,23.67
2018-10-11T13:15:44.169Z,23.55
2018-10-11T13:18:11.649Z,23.38
2018-10-11T13:20:39.210Z,23.48
2018-10-11T13:23:09.775Z,23.46
2018-10-11T13:25:34.352Z,23.48
2018-10-11T13:28:01.909Z,23.57
2018-10-11T13:30:29.505Z,23.40
2018-10-11T13:32:57.046Z,23.38
2018-10-11T13:35:24.633Z,23.37
2018-10-11T13:37:52.146Z,23.30
2018-10-11T13:40:19.699Z,23.22
2018-10-11T13:42:47.266Z,23.23
2018-10-11T13:45:14.826Z,23.08
2018-10-11T13:47:45.295Z,23.11
2018-10-11T13:50:10.020Z,22.99
2018-10-11T13:52:37.562Z,22.85
2018-10-11T13:55:11.102Z,22.74
2018-10-11T13:57:32.686Z,22.74
2018-10-11T14:00:00.255Z,22.54
2018-10-11T14:02:27.878Z,22.65
2018-10-11T14:04:55.450Z,22.58
2018-10-11T14:07:23.034Z,22.65
2018-10-11T14:09:50.605Z,22.54
2018-10-11T14:12:18.173Z,22.65
2018-10-11T14:14:45.678Z,22.63
2018-10-11T14:17:13.284Z,22.60
2018-10-11T14:19:40.832Z,22.59
2018-10-11T14:22:08.360Z,22.51
2018-10-11T14:24:35.922Z,22.38
2018-10-11T14:27:03.520Z,22.37
2018-10-11T14:29:32.081Z,22.34
2018-10-11T14:31:59.621Z,22.28
2018-10-11T14:34:27.182Z,22.15
2018-10-11T14:36:55.744Z,22.01
2018-10-11T14:39:23.233Z,21.92
2018-10-11T14:41:50.819Z,21.87
2018-10-11T14:44:18.378Z,21.84
2018-10-11T14:46:45.967Z,21.79
2018-10-11T14:49:13.553Z,21.67
2018-10-11T14:51:44.476Z,21.49
2018-10-11T14:54:08.701Z,21.50
2018-10-11T14:56:36.264Z,21.56
2018-10-11T14:59:03.839Z,21.63
2018-10-11T15:01:31.374Z,21.49
2018-10-11T15:03:58.927Z,21.50
2018-10-11T15:06:26.551Z,21.47
2018-10-11T15:08:54.142Z,21.46
2018-10-11T15:11:21.852Z,21.17
2018-10-11T15:13:49.312Z,21.30
2018-10-11T15:16:16.845Z,21.26
2018-10-11T15:18:44.454Z,21.29
2018-10-11T15:21:12.004Z,21.29
2018-10-11T15:23:39.566Z,21.33
2018-10-11T15:26:07.147Z,21.37
2018-10-11T15:28:34.670Z,21.44
2018-10-11T15:31:02.270Z,21.49
2018-10-11T15:33:29.835Z,21.33
2018-10-11T15:35:57.385Z,21.40
2018-10-11T15:38:24.937Z,21.28
2018-10-11T15:40:52.485Z,21.10
2018-10-11T15:43:20.048Z,21.28
2018-10-11T15:45:47.657Z,21.19
2018-10-11T15:48:15.211Z,21.15
2018-10-11T15:50:42.742Z,21.04
2018-10-11T15:53:10.312Z,20.93
2018-10-11T15:55:37.923Z,20.82
2018-10-11T15:58:05.511Z,20.66
2018-10-11T16:00:33.078Z,20.69
2018-10-11T16:03:00.734Z,20.70
2018-10-11T16:05:28.366Z,20.69
2018-10-11T16:07:55.901Z,20.66
2018-10-11T16:10:23.491Z,20.76
2018-10-11T16:12:51.078Z,20.50
2018-10-11T16:15:18.679Z,20.50
2018-10-11T16:17:46.323Z,20.47
2018-10-11T16:20:13.866Z,20.30
2018-10-11T16:22:41.426Z,20.40
2018-10-11T16:25:09.021Z,20.42
2018-10-11T16:27:36.583Z,20.31
2018-10-11T16:30:04.772Z,20.48
2018-10-11T16:32:32.311Z,20.49
2018-10-11T16:34:59.894Z,20.21
2018-10-11T16:37:27.486Z,20.17
2018-10-11T16:39:55.035Z,20.03
2018-10-11T16:42:22.613Z,19.86
2018-10-11T16:44:50.202Z,19.83
2018-10-11T16:47:17.781Z,19.73
2018-10-11T16:49:45.402Z,19.70
2018-10-11T16:52:12.988Z,19.70
2018-10-11T16:54:43.390Z,19.75
2018-10-11T16:57:11.733Z,19.61
2018-10-11T16:59:39.323Z,19.56
2018-10-11T17:02:06.930Z,19.50
2018-10-11T17:04:34.541Z,19.46
2018-10-11T17:07:02.141Z,19.42
2018-10-11T17:09:29.710Z,19.41
2018-10-11T17:11:57.298Z,19.38
2018-10-11T17:14:24.879Z,19.24
2018-10-11T17:16:52.444Z,19.16
2018-10-11T17:19:20.030Z,19.07
2018-10-11T17:21:47.797Z,19.09
2018-10-11T17:24:15.307Z,19.22
2018-10-11T17:26:42.916Z,19.07
2018-10-11T17:29:10.541Z,18.93
2018-10-11T17:31:38.185Z,18.90
2018-10-11T17:34:05.829Z,18.85
2018-10-11T17:36:33.386Z,18.82
2018-10-11T17:39:01.016Z,18.85
2018-10-11T17:41:28.590Z,18.86
2018-10-11T17:43:56.187Z,18.73
2018-10-11T17:46:23.819Z,18.77
2018-10-11T17:48:51.370Z,18.80
2018-10-11T17:51:19.031Z,18.65
2018-10-11T17:53:46.583Z,18.56
2018-10-11T17:56:14.167Z,18.49
2018-10-11T17:58:41.742Z,18.64
2018-10-11T18:01:09.367Z,18.51
2018-10-11T18:03:36.980Z,18.35
2018-10-11T18:06:04.555Z,18.24
2018-10-11T18:08:33.168Z,18.14
2018-10-11T18:11:00.770Z,18.08
2018-10-11T18:13:28.502Z,18.03
2018-10-11T18:15:56.055Z,17.92
2018-10-11T18:18:23.636Z,17.85
2018-10-11T18:20:51.225Z,18.04
2018-10-11T18:23:18.779Z,18.05
2018-10-11T18:25:46.350Z,17.78
2018-10-11T18:28:13.968Z,17.47
2018-10-11T18:30:41.611Z,17.24
2018-10-11T18:33:09.140Z,17.03
2018-10-11T18:35:36.770Z,16.95
2018-10-11T18:38:04.370Z,16.92
2018-10-11T18:40:31.946Z,17.19
2018-10-11T18:42:59.512Z,17.02
2018-10-11T18:45:27.117Z,16.89
2018-10-11T18:47:54.685Z,16.87
2018-10-11T18:50:22.298Z,16.70
2018-10-11T18:52:49.871Z,16.67
2018-10-11T18:55:17.494Z,16.65
2018-10-11T18:57:45.120Z,16.57
2018-10-11T19:00:12.656Z,16.62
2018-10-11T19:02:40.398Z,16.63
2018-10-11T19:05:08.087Z,16.58
2018-10-11T19:07:35.639Z,16.59
2018-10-11T19:10:03.326Z,16.59
2018-10-11T19:12:30.881Z,16.73
2018-10-11T19:14:58.426Z,16.93
2018-10-11T19:17:25.992Z,16.87
2018-10-11T19:19:53.535Z,16.58
2018-10-11T19:22:21.174Z,16.59
2018-10-11T19:24:48.770Z,16.55
2018-10-11T19:27:16.334Z,16.22
2018-10-11T19:29:43.951Z,16.13
2018-10-11T19:32:11.490Z,16.10
2018-10-11T19:34:39.088Z,16.02
2018-10-11T19:37:06.656Z,15.94
2018-10-11T19:39:34.210Z,15.77
2018-10-11T19:42:01.857Z,15.79
2018-10-11T19:44:29.446Z,15.78
2018-10-11T19:46:57.330Z,15.73
2018-10-11T19:49:24.871Z,15.56
2018-10-11T19:51:52.407Z,15.60
2018-10-11T19:54:19.982Z,15.55
2018-10-11T19:56:47.530Z,15.44
2018-10-11T19:59:15.136Z,15.47
2018-10-11T20:01:42.698Z,15.31
2018-10-11T20:04:10.265Z,15.28
2018-10-11T20:06:37.839Z,15.38
2018-10-11T20:09:06.344Z,15.71
2018-10-11T20:11:33.960Z,15.83
2018-10-11T20:14:01.526Z,15.68
2018-10-11T20:16:29.092Z,15.55
2018-10-11T20:18:56.699Z,15.50
2018-10-11T20:21:24.276Z,15.44
2018-10-11T20:23:51.872Z,15.42
2018-10-11T20:26:19.480Z,15.40
2018-10-11T20:28:47.038Z,15.36
2018-10-11T20:31:14.618Z,15.33
2018-10-11T20:33:42.162Z,15.28
2018-10-11T20:36:09.741Z,15.24
2018-10-11T20:38:37.289Z,15.16
2018-10-11T20:41:04.858Z,15.04
2018-10-11T20:43:32.524Z,14.99
2018-10-11T20:46:00.421Z,14.81
2018-10-11T20:48:27.941Z,14.79
2018-10-11T20:50:55.539Z,14.82
2018-10-11T20:53:23.086Z,14.82
2018-10-11T20:55:50.629Z,14.83
2018-10-11T20:58:18.233Z,14.75
2018-10-11T21:00:45.806Z,14.68
2018-10-11T21:03:13.386Z,14.68
2018-10-11T21:05:40.992Z,14.61
2018-10-11T21:08:09.079Z,14.58
2018-10-11T21:10:36.682Z,14.51
2018-10-11T21:13:04.280Z,14.49
2018-10-11T21:15:31.866Z,14.38
2018-10-11T21:17:59.424Z,14.31
2018-10-11T21:20:27.040Z,14.27
2018-10-11T21:22:54.495Z,14.28
2018-10-11T21:25:22.016Z,14.16
2018-10-11T21:27:49.611Z,14.14
2018-10-11T21:30:17.139Z,14.13
2018-10-11T21:32:44.714Z,14.16
2018-10-11T21:35:12.571Z,14.16
2018-10-11T21:37:40.112Z,14.15
2018-10-11T21:40:07.764Z,14.09
2018-10-11T21:42:35.362Z,14.00
2018-10-11T21:45:03.073Z,13.95
2018-10-11T21:47:30.986Z,13.94
2018-10-11T21:49:58.522Z,13.87
2018-10-11T21:52:26.096Z,13.91
2018-10-11T21:54:53.707Z,13.97
2018-10-11T21:57:21.266Z,13.96
2018-10-11T21:59:48.889Z,14.07
2018-10-11T22:02:16.366Z,13.99
2018-10-11T22:04:43.902Z,14.02
2018-10-11T22:07:11.648Z,14.01
2018-10-11T22:09:39.170Z,13.98
2018-10-11T22:12:08.334Z,14.06
2018-10-11T22:14:35.877Z,14.03
2018-10-11T22:17:03.426Z,13.92
2018-10-11T22:19:30.980Z,13.88
2018-10-11T22:21:58.531Z,13.79
2018-10-11T22:24:26.106Z,13.79
2018-10-11T22:26:53.775Z,13.74
2018-10-11T22:29:21.314Z,13.81
2018-10-11T22:31:48.867Z,13.77
2018-10-11T22:34:16.492Z,13.73
2018-10-11T22:36:44.108Z,13.75
2018-10-11T22:39:12.162Z,13.73
2018-10-11T22:41:39.927Z,13.67
2018-10-11T22:44:07.986Z,13.62
2018-10-11T22:46:35.599Z,13.50
2018-10-11T22:49:03.258Z,13.43
2018-10-11T22:51:30.847Z,13.34
2018-10-11T22:53:58.390Z,13.23
2018-10-11T22:56:25.930Z,13.20
2018-10-11T22:58:54.695Z,13.21
2018-10-11T23:01:22.447Z,13.24
2018-10-11T23:03:49.994Z,13.22
2018-10-11T23:06:17.547Z,13.17
2018-10-11T23:08:45.110Z,13.18
2018-10-11T23:11:12.682Z,13.15
2018-10-11T23:13:40.764Z,13.13
2018-10-11T23:16:09.019Z,13.14
2018-10-11T23:18:36.587Z,13.11
2018-10-11T23:21:04.137Z,13.09
2018-10-11T23:23:31.733Z,13.00
2018-10-11T23:25:59.333Z,13.00
2018-10-11T23:28:26.866Z,12.99
2018-10-11T23:30:54.419Z,12.98
2018-10-11T23:33:21.951Z,12.98
2018-10-11T23:35:49.510Z,12.97
2018-10-11T23:38:17.053Z,12.97
2018-10-11T23:40:44.595Z,13.06
2018-10-11T23:43:12.119Z,13.12
2018-10-11T23:45:39.686Z,13.07
2018-10-11T23:48:07.275Z,13.06
2018-10-11T23:50:34.824Z,13.01
2018-10-11T23:53:02.393Z,12.95
2018-10-11T23:55:31.495Z,13.00
2018-10-11T23:57:59.570Z,13.07
